Time;durP1;ratioP1;P1;durP2;ratioP2;P2;SDS_P1;SDS_P2;PMS_P1;PMS_P2;Temp;Humidity;BMP_temperature;BMP_pressure;BME280_temperature;BME280_humidity;BME280_pressure;Samples;Min_cycle;Max_cycle;Signal;HPM_P1;HPM_P2
2021/10/21 06:35:59;;;;;;;4.20;0.75;;;;;;;12.74;65.56;97780.88;5090802;27;20393;-83
2021/10/21 06:38:30;;;;;;;3.72;0.85;;;;;;;12.67;65.29;97782.88;5090144;28;20044;-85
2021/10/21 06:40:57;;;;;;;8.75;1.83;;;;;;;12.78;65.81;97804.94;5089653;28;20054;-82
2021/10/21 06:43:23;;;;;;;5.32;1.20;;;;;;;12.82;64.65;97796.06;5089413;28;20388;-84
2021/10/21 06:45:52;;;;;;;9.18;1.70;;;;;;;12.81;64.73;97797.16;5088896;28;20121;-83
2021/10/21 06:48:19;;;;;;;4.50;1.58;;;;;;;12.85;64.65;97794.78;5089404;28;20127;-83
2021/10/21 06:50:46;;;;;;;9.15;1.10;;;;;;;12.92;63.85;97820.06;5089814;28;20480;-83
2021/10/21 06:53:19;;;;;;;6.80;2.63;;;;;;;12.95;64.40;97792.31;5090023;28;20071;-83
2021/10/21 06:55:46;;;;;;;5.95;1.20;;;;;;;12.97;63.09;97828.38;5089150;28;20052;-82
2021/10/21 06:58:13;;;;;;;5.53;0.70;;;;;;;13.05;61.87;97813.56;5088734;28;20544;-82
2021/10/21 07:00:41;;;;;;;7.07;0.90;;;;;;;13.08;61.61;97835.78;5088785;28;20052;-82
2021/10/21 07:03:09;;;;;;;8.20;0.65;;;;;;;13.07;60.49;97849.66;5089235;28;20060;-84
2021/10/21 07:05:39;;;;;;;9.52;2.22;;;;;;;13.08;61.91;97837.66;5089093;28;20131;-83
2021/10/21 07:08:08;;;;;;;;;;;;;;;13.19;59.92;97857.88;5089705;28;20048;-85
2021/10/21 07:10:36;;;;;;;2.10;0.65;;;;;;;13.17;61.07;97876.34;5089387;28;20009;-83
2021/10/21 07:13:04;;;;;;;5.60;0.63;;;;;;;13.12;60.82;97866.13;5088094;28;20052;-83
2021/10/21 07:15:32;;;;;;;6.32;0.85;;;;;;;13.15;61.74;97864.84;5076728;28;20044;-83
2021/10/21 07:17:59;;;;;;;4.53;0.50;;;;;;;13.15;60.99;97868.41;5089214;28;20056;-83
2021/10/21 07:20:26;;;;;;;5.53;0.80;;;;;;;13.23;60.19;97880.88;5088909;28;20053;-84
2021/10/21 07:22:52;;;;;;;6.78;0.75;;;;;;;13.14;60.57;97871.34;5088623;28;20044;-84
2021/10/21 07:25:20;;;;;;;4.07;0.60;;;;;;;13.25;59.08;97893.22;5088714;28;20101;-84
2021/10/21 07:27:48;;;;;;;5.97;0.90;;;;;;;13.19;60.33;97926.91;5088793;28;20407;-81
2021/10/21 07:30:15;;;;;;;12.48;1.13;;;;;;;13.26;59.04;97924.06;5084268;28;20092;-84
2021/10/21 07:32:42;;;;;;;3.45;0.55;;;;;;;13.13;60.50;97925.09;5076703;28;20053;-84
2021/10/21 07:35:10;;;;;;;4.78;0.47;;;;;;;13.17;60.24;97944.56;5087969;28;20499;-84
2021/10/21 07:37:37;;;;;;;6.68;0.57;;;;;;;13.10;60.23;97971.97;5088170;28;20052;-86
2021/10/21 07:40:06;;;;;;;5.70;0.57;;;;;;;13.15;60.54;97957.63;5088293;28;20136;-83
2021/10/21 07:42:34;;;;;;;4.70;0.47;;;;;;;13.23;60.32;97992.75;5088611;28;20048;-81
2021/10/21 07:45:02;;;;;;;6.53;0.70;;;;;;;13.25;60.58;97993.38;5088464;28;20044;-82
2021/10/21 07:47:29;;;;;;;9.05;1.27;;;;;;;13.26;61.85;98004.06;5073502;28;20056;-83
2021/10/21 07:49:57;;;;;;;1.75;0.65;;;;;;;13.33;60.21;98017.59;5074818;28;20127;-82
2021/10/21 07:52:25;;;;;;;2.30;0.40;;;;;;;13.35;62.01;98028.31;5074773;28;20492;-82
2021/10/21 07:54:52;;;;;;;4.93;0.50;;;;;;;13.34;60.67;98038.44;5074631;28;20041;-82
2021/10/21 07:57:20;;;;;;;3.45;0.40;;;;;;;13.28;60.36;98064.69;5074742;28;20104;-83
2021/10/21 07:59:48;;;;;;;20.00;0.77;;;;;;;13.24;60.64;98071.66;5074501;28;20070;-85
2021/10/21 08:02:19;;;;;;;4.97;0.60;;;;;;;13.22;61.65;98089.34;5075164;28;20055;-83
2021/10/21 08:04:46;;;;;;;3.15;0.75;;;;;;;13.11;61.22;98082.75;5073881;28;20052;-81
2021/10/21 08:07:15;;;;;;;3.15;0.40;;;;;;;13.10;61.90;98095.56;5074692;28;20048;-82
2021/10/21 08:09:41;;;;;;;1.75;0.47;;;;;;;13.18;62.24;98107.25;5074930;28;20045;-81
2021/10/21 08:12:09;;;;;;;6.38;1.20;;;;;;;13.16;63.28;98136.63;5074794;28;20533;-82
2021/10/21 08:14:36;;;;;;;4.07;0.40;;;;;;;13.03;62.93;98134.91;5073905;28;20488;-82
2021/10/21 08:17:03;;;;;;;9.52;2.30;;;;;;;12.87;64.84;98155.41;5074473;28;20102;-82
2021/10/21 08:19:31;;;;;;;6.75;0.65;;;;;;;12.68;65.29;98162.72;5074102;28;20049;-83
2021/10/21 08:22:03;;;;;;;2.38;0.63;;;;;;;12.63;66.17;98148.91;5074217;28;20051;-83
2021/10/21 08:24:32;;;;;;;2.53;0.60;;;;;;;12.68;67.16;98157.28;5073911;28;20061;-83
2021/10/21 08:26:59;;;;;;;5.22;1.42;;;;;;;12.73;67.13;98188.25;5074572;28;20117;-81
2021/10/21 08:29:27;;;;;;;12.82;0.50;;;;;;;12.73;67.16;98207.34;5074403;28;20114;-82
2021/10/21 08:32:02;;;;;;;0.60;0.28;;;;;;;12.66;67.96;98219.34;5074311;28;20457;-82
2021/10/21 08:34:29;;;;;;;0.65;0.30;;;;;;;12.55;69.12;98243.53;5073500;28;20048;-81
2021/10/21 08:36:57;;;;;;;3.25;0.57;;;;;;;12.44;70.29;98247.00;5073512;28;20048;-81
2021/10/21 08:39:23;;;;;;;8.93;0.60;;;;;;;12.35;70.98;98246.41;5055392;28;20060;-81
2021/10/21 08:41:50;;;;;;;1.50;0.40;;;;;;;12.39;72.69;98261.28;5054058;28;20057;-82
2021/10/21 08:44:17;;;;;;;3.10;0.50;;;;;;;12.44;72.80;98262.53;5068455;28;20056;-83
2021/10/21 08:46:45;;;;;;;2.53;0.60;;;;;;;12.31;72.97;98277.03;5074032;28;20051;-81
2021/10/21 08:49:13;;;;;;;3.22;0.63;;;;;;;12.26;73.11;98290.50;5072971;28;20041;-83
2021/10/21 08:51:40;;;;;;;0.85;0.30;;;;;;;12.24;73.17;98288.00;5074177;28;20458;-81
2021/10/21 08:54:10;;;;;;;2.55;0.50;;;;;;;12.24;72.20;98298.91;5071804;28;20114;-82
2021/10/21 08:56:37;;;;;;;2.78;0.50;;;;;;;12.34;74.01;98318.31;5073393;28;20480;-81
2021/10/21 08:59:04;;;;;;;3.70;0.50;;;;;;;12.49;74.50;98323.47;5072978;28;20053;-81
2021/10/21 09:01:37;;;;;;;1.08;0.43;;;;;;;12.40;71.83;98338.41;5073722;28;20170;-83
2021/10/21 09:09:43;;;;;;;1.55;0.30;;;;;;;12.77;70.42;98344.09;5072823;28;20075;-80
2021/10/21 09:12:13;;;;;;;0.63;0.40;;;;;;;12.63;71.93;98346.09;5055190;28;20245;-82
2021/10/21 09:14:42;;;;;;;1.42;0.40;;;;;;;12.46;70.35;98374.88;5053152;28;20276;-83
2021/10/21 09:17:11;;;;;;;4.88;0.75;;;;;;;12.29;70.35;98382.72;5071853;28;20048;-83
2021/10/21 09:19:39;;;;;;;1.50;0.30;;;;;;;12.16;70.97;98394.50;5073501;28;20458;-82
2021/10/21 09:22:22;;;;;;;3.60;0.40;;;;;;;12.07;70.82;98391.16;5073289;28;20488;-83
2021/10/21 09:24:51;;;;;;;1.17;0.40;;;;;;;12.17;71.43;98396.16;5072203;28;20052;-82
2021/10/21 09:27:20;;;;;;;3.20;0.50;;;;;;;12.20;71.64;98404.75;5068045;28;20052;-82
2021/10/21 09:29:49;;;;;;;2.20;0.60;;;;;;;12.26;71.51;98411.22;5053587;28;20053;-84
2021/10/21 09:32:18;;;;;;;0.90;0.30;;;;;;;12.19;69.33;98419.44;5053173;28;20107;-82
2021/10/21 09:34:48;;;;;;;1.80;0.60;;;;;;;12.16;71.21;98433.50;5052696;28;20045;-84
2021/10/21 09:37:17;;;;;;;0.93;0.28;;;;;;;12.26;69.97;98424.03;5052643;28;20507;-82
2021/10/21 09:39:46;;;;;;;3.15;0.50;;;;;;;12.31;70.19;98426.94;5052736;28;20481;-82
2021/10/21 09:42:15;;;;;;;0.25;0.25;;;;;;;12.41;68.05;98430.06;5056548;28;20055;-82
2021/10/21 09:44:42;;;;;;;4.72;0.30;;;;;;;12.53;66.97;98447.41;5071821;28;20059;-82
2021/10/21 09:47:18;;;;;;;1.23;0.45;;;;;;;12.39;67.39;98456.69;5072363;28;20052;-82
2021/10/21 09:49:53;;;;;;;2.20;0.20;;;;;;;12.26;65.27;98448.56;5072894;28;20045;-85
2021/10/21 09:52:22;;;;;;;1.75;0.38;;;;;;;12.29;67.60;98473.47;5072812;28;20147;-82
2021/10/21 09:54:50;;;;;;;3.88;0.65;;;;;;;12.36;68.25;98484.34;5072235;28;20446;-82
2021/10/21 09:57:19;;;;;;;0.70;0.32;;;;;;;12.36;66.99;98496.13;5072591;28;20127;-83
2021/10/21 10:00:02;;;;;;;2.10;0.47;;;;;;;12.13;67.01;98477.47;5072233;28;20478;-82
2021/10/21 10:02:31;;;;;;;2.97;0.57;;;;;;;12.35;68.58;98504.50;5054353;28;20139;-84
2021/10/21 10:05:01;;;;;;;1.30;0.50;;;;;;;12.17;67.58;98519.63;5052515;28;20045;-82
2021/10/21 10:07:28;;;;;;;1.63;0.75;;;;;;;12.05;66.39;98507.69;5052573;28;20045;-82
2021/10/21 10:09:59;;;;;;;0.70;0.28;;;;;;;12.26;66.79;98525.69;5052150;28;20055;-82
2021/10/21 10:12:30;;;;;;;3.30;0.55;;;;;;;12.26;65.78;98531.13;5052532;28;20052;-82
2021/10/21 10:14:57;;;;;;;2.08;0.50;;;;;;;12.22;66.22;98529.88;5059378;28;20121;-81
2021/10/21 10:17:27;;;;;;;1.38;0.40;;;;;;;12.12;66.72;98529.47;5072187;28;20076;-82
2021/10/21 10:19:54;;;;;;;2.28;0.50;;;;;;;12.08;66.78;98534.50;5072424;28;20078;-84
2021/10/21 10:22:26;;;;;;;4.25;0.88;;;;;;;12.36;67.36;98527.97;5072256;28;20056;-82
2021/10/21 10:24:54;;;;;;;3.33;0.47;;;;;;;12.45;66.63;98529.44;5072413;28;20126;-82
2021/10/21 10:27:23;;;;;;;3.78;0.57;;;;;;;12.55;65.52;98531.72;5072272;28;20053;-82
2021/10/21 10:29:52;;;;;;;1.17;0.60;;;;;;;12.47;64.69;98524.59;5072313;28;20053;-84
2021/10/21 10:32:38;;;;;;;2.08;0.35;;;;;;;12.54;65.78;98530.88;5070215;28;20411;-83
2021/10/21 10:35:07;;;;;;;4.90;0.60;;;;;;;12.81;65.91;98524.50;5071670;28;20055;-83
2021/10/21 10:37:55;;;;;;;3.65;0.57;;;;;;;13.00;64.48;98520.03;5071987;28;20162;-83
2021/10/21 10:40:43;;;;;;;1.55;0.40;;;;;;;13.27;63.76;98524.31;5071867;28;20056;-83
2021/10/21 10:43:16;;;;;;;2.20;0.60;;;;;;;13.38;64.29;98530.16;5072273;28;20055;-83
2021/10/21 10:45:53;;;;;;;3.65;0.82;;;;;;;13.33;62.55;98522.59;5071729;28;20044;-82
2021/10/21 10:48:49;;;;;;;1.45;0.50;;;;;;;13.23;61.64;98512.16;5070900;28;20589;-83
2021/10/21 10:51:16;;;;;;;0.77;0.40;;;;;;;13.34;63.67;98529.78;5072189;28;20048;-84
2021/10/21 10:53:48;;;;;;;1.33;0.55;;;;;;;13.17;61.84;98540.34;5072349;28;20048;-84
2021/10/21 10:56:43;;;;;;;3.08;1.00;;;;;;;12.90;61.94;98539.59;5071627;28;20051;-83
2021/10/21 10:59:17;;;;;;;2.42;0.50;;;;;;;13.05;63.99;98547.50;5071874;28;20381;-82
2021/10/21 11:01:46;;;;;;;1.98;0.50;;;;;;;13.18;63.57;98554.81;5071850;28;20049;-82
2021/10/21 11:04:33;;;;;;;6.63;0.88;;;;;;;13.26;61.95;98540.91;5071183;28;20052;-82
2021/10/21 11:07:05;;;;;;;2.45;0.50;;;;;;;13.02;61.99;98531.56;5051542;28;20102;-84
2021/10/21 11:09:32;;;;;;;5.05;0.85;;;;;;;13.25;63.52;98544.72;5051853;28;20122;-82
2021/10/21 11:12:03;;;;;;;3.53;0.80;;;;;;;13.20;62.38;98539.91;5051804;28;20103;-82
2021/10/21 11:14:39;;;;;;;2.17;0.45;;;;;;;13.63;62.12;98552.06;5051455;28;20053;-82
2021/10/21 11:17:09;;;;;;;4.05;0.68;;;;;;;13.54;61.59;98551.50;5051830;28;20076;-85
2021/10/21 11:19:48;;;;;;;3.42;0.60;;;;;;;13.54;59.45;98550.66;5064681;28;20514;-83
2021/10/21 11:22:37;;;;;;;2.58;0.88;;;;;;;13.52;59.55;98552.75;5074517;28;20048;-82
2021/10/21 11:25:07;;;;;;;2.90;0.70;;;;;;;13.16;56.89;98562.34;5075225;28;20048;-84
2021/10/21 11:27:35;;;;;;;4.80;1.03;;;;;;;13.02;58.47;98562.44;5075425;28;20078;-84
2021/10/21 11:30:11;;;;;;;3.63;0.32;;;;;;;12.97;58.86;98561.41;5075639;28;20352;-83
2021/10/21 11:32:40;;;;;;;5.10;1.00;;;;;;;13.05;59.78;98564.72;5075833;28;20095;-82
2021/10/21 11:35:13;;;;;;;3.28;0.50;;;;;;;13.18;58.06;98569.28;5074756;28;20044;-83
2021/10/21 11:37:44;;;;;;;4.85;0.80;;;;;;;13.24;58.72;98562.13;5058900;28;20111;-82
2021/10/21 11:40:16;;;;;;;1.58;0.80;;;;;;;13.23;57.97;98553.13;5055340;28;20053;-82
2021/10/21 11:42:50;;;;;;;3.72;0.65;;;;;;;13.39;58.76;98535.41;5055068;28;20139;-82
2021/10/21 11:45:18;;;;;;;2.00;0.65;;;;;;;13.51;57.70;98551.94;5055091;28;20080;-82
2021/10/21 11:47:47;;;;;;;4.97;0.73;;;;;;;13.42;58.69;98545.88;5054641;28;20052;-82
2021/10/21 11:50:14;;;;;;;9.53;1.17;;;;;;;13.63;59.61;98541.16;5055666;28;20056;-82
2021/10/21 11:52:42;;;;;;;4.10;0.50;;;;;;;13.70;56.85;98531.03;5057225;28;20280;-83
2021/10/21 11:55:20;;;;;;;3.72;0.73;;;;;;;13.58;56.33;98544.53;5074262;28;20056;-82
2021/10/21 11:57:47;;;;;;;3.17;0.50;;;;;;;13.62;56.07;98534.00;5074950;28;20048;-84
2021/10/21 12:00:19;;;;;;;3.70;0.70;;;;;;;13.84;55.91;98542.69;5074924;28;20539;-83
2021/10/21 12:02:52;;;;;;;4.18;0.57;;;;;;;13.65;55.57;98541.75;5075037;28;20053;-82
2021/10/21 12:05:25;;;;;;;3.78;0.75;;;;;;;13.46;57.77;98527.19;5074603;28;20056;-84
2021/10/21 12:07:52;;;;;;;5.45;0.85;;;;;;;13.15;57.54;98536.97;5074308;28;20449;-84
2021/10/21 12:10:30;;;;;;;2.83;0.55;;;;;;;13.30;57.88;98546.78;5074367;28;20455;-81
2021/10/21 12:12:57;;;;;;;1.52;0.55;;;;;;;13.32;58.79;98556.41;5074670;28;20052;-84
2021/10/21 12:15:26;;;;;;;5.30;0.70;;;;;;;13.56;58.30;98556.75;5074399;28;20048;-82
2021/10/21 12:17:55;;;;;;;1.42;0.63;;;;;;;13.67;57.93;98544.28;5074654;28;20103;-82
2021/10/21 12:20:36;;;;;;;8.20;0.57;;;;;;;13.62;55.45;98532.13;5074621;28;20139;-82
2021/10/21 12:23:34;;;;;;;7.15;0.80;;;;;;;13.76;56.49;98542.94;5074561;28;20056;-83
2021/10/21 12:26:04;;;;;;;2.42;0.77;;;;;;;13.64;53.22;98548.31;5064392;28;20054;-83
2021/10/21 12:28:45;;;;;;;6.35;0.95;;;;;;;13.59;54.23;98545.38;5065026;28;20135;-82
2021/10/21 12:31:21;;;;;;;5.70;0.80;;;;;;;13.56;53.75;98537.63;5074131;28;20518;-84
2021/10/21 12:33:56;;;;;;;6.38;1.05;;;;;;;13.60;54.78;98538.88;5074102;28;20480;-82
2021/10/21 12:36:25;;;;;;;3.15;0.70;;;;;;;13.70;54.50;98532.91;5074018;28;20130;-82
2021/10/21 12:38:53;;;;;;;7.15;0.90;;;;;;;13.83;53.34;98521.88;5073880;28;20110;-82
2021/10/21 12:41:22;;;;;;;3.65;0.63;;;;;;;13.80;52.41;98495.88;5074226;28;20063;-83
2021/10/21 12:44:03;;;;;;;3.17;0.73;;;;;;;13.84;52.25;98479.84;5073532;28;20049;-83
2021/10/21 12:46:31;;;;;;;2.20;0.65;;;;;;;13.93;51.54;98483.16;5073549;28;20056;-82
2021/10/21 12:49:18;;;;;;;2.38;0.80;;;;;;;14.21;52.68;98499.09;5073488;28;20056;-83
2021/10/21 12:51:46;;;;;;;2.33;0.68;;;;;;;14.05;52.35;98491.47;5073971;28;20064;-82
2021/10/21 12:54:24;;;;;;;1.48;0.50;;;;;;;14.22;51.49;98491.72;5073702;28;20105;-81
2021/10/21 12:56:56;;;;;;;4.68;0.70;;;;;;;14.26;52.59;98493.78;5073809;28;20270;-82
2021/10/21 12:59:23;;;;;;;3.28;0.60;;;;;;;14.30;51.91;98488.69;5073544;28;20503;-81
2021/10/21 13:01:54;;;;;;;2.95;0.55;;;;;;;14.48;51.32;98491.47;5072838;28;20502;-82
2021/10/21 13:04:54;;;;;;;4.03;0.63;;;;;;;14.57;52.26;98491.97;5073460;28;20055;-82
2021/10/21 13:07:25;;;;;;;4.15;0.63;;;;;;;14.53;52.28;98479.84;5073570;28;20395;-82
2021/10/21 13:09:53;;;;;;;2.00;0.52;;;;;;;14.46;51.74;98482.63;5073563;28;20460;-82
2021/10/21 13:12:21;;;;;;;1.65;0.50;;;;;;;14.46;51.61;98477.16;5073550;28;20549;-82
2021/10/21 13:14:49;;;;;;;5.72;0.68;;;;;;;14.54;52.94;98480.66;5072793;28;20090;-82
2021/10/21 13:17:16;;;;;;;2.95;0.73;;;;;;;14.69;52.33;98486.59;5066814;28;20045;-82
2021/10/21 13:19:45;;;;;;;4.57;0.70;;;;;;;14.98;53.63;98490.47;5073005;28;20048;-82
2021/10/21 13:22:14;;;;;;;1.90;0.45;;;;;;;14.86;51.83;98478.66;5073185;28;20487;-82
2021/10/21 13:24:41;;;;;;;6.38;0.55;;;;;;;14.37;52.23;98488.63;5072794;28;20071;-82
2021/10/21 13:27:09;;;;;;;5.50;0.88;;;;;;;14.27;52.54;98478.19;5073060;28;20240;-81
2021/10/21 13:29:36;;;;;;;1.63;0.43;;;;;;;14.01;53.54;98477.38;5072858;28;20574;-82
2021/10/21 13:32:03;;;;;;;3.65;0.52;;;;;;;13.83;54.18;98475.44;5072935;28;20053;-81
2021/10/21 13:34:30;;;;;;;2.05;0.75;;;;;;;13.67;55.77;98465.91;5072343;28;20455;-82
2021/10/21 13:36:59;;;;;;;2.40;0.60;;;;;;;13.58;55.81;98464.53;5071139;28;20053;-82
2021/10/21 13:39:26;;;;;;;8.30;1.10;;;;;;;13.48;55.89;98462.28;5072645;28;20045;-82
2021/10/21 13:41:53;;;;;;;4.00;0.85;;;;;;;13.33;57.06;98481.66;5072835;28;20086;-82
2021/10/21 13:44:19;;;;;;;6.15;0.60;;;;;;;13.42;58.47;98472.16;5072140;28;20110;-82
2021/10/21 13:46:46;;;;;;;5.45;0.80;;;;;;;13.29;58.25;98472.22;5072493;28;20556;-82
2021/10/21 13:49:14;;;;;;;2.45;0.35;;;;;;;13.45;57.89;98476.38;5059427;28;20493;-82
2021/10/21 13:51:41;;;;;;;7.55;0.68;;;;;;;13.35;57.26;98467.81;5066584;28;20044;-82
2021/10/21 13:54:09;;;;;;;3.78;0.90;;;;;;;13.32;58.20;98446.38;5072831;28;20105;-82
2021/10/21 13:56:36;;;;;;;1.23;0.60;;;;;;;13.26;58.57;98442.63;5071956;28;20098;-81
2021/10/21 13:59:04;;;;;;;1.27;0.52;;;;;;;13.34;59.40;98458.81;5072807;28;20495;-82
2021/10/21 14:01:32;;;;;;;1.42;0.38;;;;;;;13.27;57.77;98464.25;5072706;28;20565;-82
2021/10/21 14:04:00;;;;;;;2.30;1.00;;;;;;;13.47;59.65;98448.84;5070166;28;20052;-82
2021/10/21 14:06:29;;;;;;;4.65;0.90;;;;;;;13.31;58.13;98458.34;5052416;28;20045;-83
2021/10/21 14:08:58;;;;;;;2.40;0.57;;;;;;;13.39;56.39;98439.84;5052323;28;20495;-82
2021/10/21 14:11:28;;;;;;;2.25;0.75;;;;;;;13.48;53.93;98424.03;5052606;28;20047;-82
2021/10/21 14:13:55;;;;;;;5.07;0.70;;;;;;;13.62;50.30;98447.47;5052301;28;20495;-83
2021/10/21 14:16:22;;;;;;;5.47;0.82;;;;;;;13.50;51.32;98443.75;5051915;28;20049;-83
2021/10/21 14:18:49;;;;;;;1.27;0.63;;;;;;;13.49;48.88;98453.03;5064463;28;20105;-83
2021/10/21 14:21:17;;;;;;;0.68;0.35;;;;;;;13.41;46.77;98442.38;5071711;28;20049;-83
2021/10/21 14:23:44;;;;;;;1.13;0.40;;;;;;;13.68;48.50;98458.56;5072425;28;20110;-82
2021/10/21 14:26:12;;;;;;;5.50;1.88;;;;;;;13.75;47.63;98459.34;5072138;28;20048;-82
2021/10/21 14:28:40;;;;;;;3.30;0.73;;;;;;;13.58;48.80;98459.06;5072313;28;20055;-82
2021/10/21 14:31:08;;;;;;;1.92;0.70;;;;;;;13.88;48.18;98451.03;5072266;28;20487;-82
2021/10/21 14:33:35;;;;;;;1.27;0.55;;;;;;;14.03;46.82;98452.56;5071808;28;20049;-82
2021/10/21 14:36:02;;;;;;;1.58;0.28;;;;;;;13.81;45.81;98451.06;5071634;28;20541;-83
2021/10/21 14:38:29;;;;;;;1.15;0.50;;;;;;;13.80;45.48;98446.69;5071064;28;20049;-82
2021/10/21 14:40:56;;;;;;;2.10;0.90;;;;;;;13.81;44.97;98451.06;5072270;28;20106;-84
2021/10/21 14:43:23;;;;;;;3.05;0.68;;;;;;;13.96;45.18;98466.31;5072207;28;20462;-84
2021/10/21 14:45:51;;;;;;;0.70;0.40;;;;;;;13.83;46.29;98450.84;5072024;28;20047;-79
2021/10/21 14:48:19;;;;;;;4.30;0.60;;;;;;;13.88;45.16;98467.44;5071533;28;20052;-81
2021/10/21 14:50:47;;;;;;;4.63;0.68;;;;;;;13.89;45.89;98460.06;5071464;28;20052;-80
2021/10/21 14:53:13;;;;;;;4.07;1.00;;;;;;;13.87;46.77;98454.00;5071823;28;20488;-81
2021/10/21 14:55:43;;;;;;;2.03;0.50;;;;;;;13.70;47.00;98453.69;5052239;28;20057;-82
2021/10/21 14:58:11;;;;;;;6.03;1.08;;;;;;;13.67;48.08;98463.19;5055955;28;20056;-82
2021/10/21 15:00:39;;;;;;;3.78;0.63;;;;;;;13.50;47.87;98441.03;5055981;28;20053;-81
2021/10/21 15:03:07;;;;;;;4.28;0.82;;;;;;;13.48;49.02;98442.34;5055542;28;20467;-82
2021/10/21 15:05:41;;;;;;;1.70;0.60;;;;;;;13.49;47.81;98433.91;5055571;28;20041;-81
2021/10/21 15:08:16;;;;;;;2.05;0.68;;;;;;;13.64;49.30;98444.50;5068624;28;20514;-81
2021/10/21 15:11:15;;;;;;;1.98;0.70;;;;;;;13.68;51.02;98455.81;5070856;28;20060;-81
2021/10/21 15:24:43;;;;;;;2.95;0.43;;;;;;;13.56;48.95;98439.31;5074500;28;20523;-82
2021/10/21 15:27:10;;;;;;;1.80;0.60;;;;;;;13.47;49.99;98446.09;5061949;28;20044;-82
2021/10/21 15:29:37;;;;;;;5.07;0.68;;;;;;;13.23;50.13;98437.63;5073351;28;20048;-83
2021/10/21 15:32:06;;;;;;;3.45;0.50;;;;;;;13.28;49.83;98443.28;5074691;28;20049;-87
2021/10/21 15:34:35;;;;;;;5.05;0.82;;;;;;;13.25;50.34;98430.06;5074681;28;20041;-82
2021/10/21 15:37:02;;;;;;;3.75;0.52;;;;;;;13.20;51.50;98421.69;5073255;28;20044;-81
2021/10/21 15:39:36;;;;;;;2.13;0.68;;;;;;;13.22;51.81;98427.78;5073303;28;20113;-81
2021/10/21 15:42:49;;;;;;;2.08;0.50;;;;;;;13.12;52.02;98430.97;5072382;28;20102;-84
2021/10/21 15:48:18;;;;;;;3.40;0.63;;;;;;;12.97;51.87;98411.34;5051527;28;20623;-83
2021/10/21 16:10:19;;;;;;;4.15;1.13;;;;;;;12.64;55.04;98413.19;5073858;28;20052;-82
2021/10/21 16:12:46;;;;;;;6.33;1.60;;;;;;;12.59;55.76;98414.91;5073138;28;20052;-82
2021/10/21 16:15:14;;;;;;;2.47;0.90;;;;;;;12.53;54.62;98397.50;5064552;28;20049;-81
2021/10/21 16:17:43;;;;;;;4.80;0.88;;;;;;;12.52;54.66;98417.63;5054921;28;20049;-81
2021/10/21 16:20:18;;;;;;;6.40;1.33;;;;;;;12.48;53.41;98414.53;5072696;28;20048;-82
2021/10/21 16:22:50;;;;;;;8.73;1.98;;;;;;;12.52;54.25;98439.44;5074276;28;20106;-81
2021/10/21 16:25:33;;;;;;;3.60;1.30;;;;;;;12.43;54.45;98440.75;5056739;28;20124;-81
2021/10/21 16:28:03;;;;;;;4.80;1.17;;;;;;;12.48;55.42;98435.47;5072468;28;20051;-82
2021/10/21 16:30:31;;;;;;;13.18;1.60;;;;;;;12.45;54.06;98452.25;5071406;28;20059;-81
2021/10/21 16:33:02;;;;;;;5.22;1.38;;;;;;;12.35;55.93;98434.47;5073191;28;20048;-81
2021/10/21 16:35:29;;;;;;;5.85;1.08;;;;;;;12.31;56.45;98424.22;5075036;28;20070;-82
2021/10/21 16:37:58;;;;;;;6.43;1.20;;;;;;;12.29;54.98;98432.59;5073782;28;20049;-82
2021/10/21 16:40:25;;;;;;;4.60;0.73;;;;;;;12.28;56.89;98438.25;5073124;28;20075;-82
2021/10/21 16:42:54;;;;;;;3.13;1.20;;;;;;;12.23;55.63;98441.63;5072946;28;20049;-82
2021/10/21 16:45:21;;;;;;;3.88;1.23;;;;;;;12.27;55.38;98451.06;5073068;28;20044;-80
2021/10/21 16:47:48;;;;;;;2.28;1.08;;;;;;;12.24;55.15;98440.59;5065745;28;20056;-82
2021/10/21 16:50:19;;;;;;;5.60;0.93;;;;;;;12.26;56.66;98443.09;5053841;28;20053;-82
2021/10/21 16:52:47;;;;;;;3.20;0.57;;;;;;;12.15;55.46;98439.13;5053202;28;20057;-83
2021/10/21 16:55:15;;;;;;;3.92;1.00;;;;;;;12.08;56.03;98436.44;5052511;28;20055;-82
2021/10/21 16:57:42;;;;;;;2.80;0.90;;;;;;;12.11;55.95;98444.16;5053393;28;20060;-83
2021/10/21 17:00:11;;;;;;;4.50;1.40;;;;;;;12.24;56.29;98456.94;5052873;28;20044;-83
2021/10/21 17:02:38;;;;;;;1.73;0.95;;;;;;;12.17;54.32;98456.94;5056977;28;20045;-83
2021/10/21 17:05:06;;;;;;;7.70;1.60;;;;;;;12.24;55.27;98470.56;5052945;28;20053;-82
2021/10/21 17:07:35;;;;;;;4.55;1.08;;;;;;;12.17;56.84;98473.28;5053480;28;20088;-83
2021/10/21 17:10:04;;;;;;;9.10;1.33;;;;;;;12.20;56.10;98472.03;5052189;28;20095;-83
2021/10/21 17:12:33;;;;;;;3.45;1.00;;;;;;;12.21;56.23;98477.28;5053228;28;20049;-83
2021/10/21 17:14:59;;;;;;;1.58;0.98;;;;;;;12.29;57.19;98494.47;5052714;28;20049;-83
2021/10/21 17:17:27;;;;;;;3.08;1.23;;;;;;;12.18;58.18;98479.59;5052494;28;20072;-81
2021/10/21 17:19:54;;;;;;;3.70;0.82;;;;;;;12.20;58.78;98491.94;5055437;28;20123;-81
2021/10/21 17:22:21;;;;;;;4.68;1.00;;;;;;;12.09;59.93;98492.59;5072798;28;20048;-82
2021/10/21 17:24:49;;;;;;;2.53;0.88;;;;;;;11.92;61.83;98489.41;5072324;28;20048;-81
2021/10/21 17:27:15;;;;;;;4.30;0.95;;;;;;;11.96;61.32;98501.59;5071975;28;20055;-81
2021/10/21 17:29:44;;;;;;;7.65;1.20;;;;;;;11.96;61.30;98498.88;5072572;28;20090;-82
2021/10/21 17:32:11;;;;;;;3.85;1.60;;;;;;;11.91;61.49;98484.19;5072519;28;20102;-82
2021/10/21 17:34:41;;;;;;;4.70;1.30;;;;;;;11.94;67.21;98498.25;5072365;28;20048;-81
2021/10/21 17:37:09;;;;;;;8.82;1.58;;;;;;;11.91;72.31;98514.13;5070953;28;20055;-83
2021/10/21 17:39:37;;;;;;;7.97;1.67;;;;;;;11.70;75.06;98510.59;5072068;28;20048;-82
2021/10/21 17:42:06;;;;;;;6.13;1.38;;;;;;;11.62;75.12;98517.06;5072438;28;20407;-82
2021/10/21 17:44:34;;;;;;;5.03;1.10;;;;;;;11.49;77.43;98514.34;5071546;28;20168;-82
2021/10/21 17:47:02;;;;;;;3.65;1.50;;;;;;;11.49;80.89;98519.78;5072360;28;20483;-82
2021/10/21 17:49:29;;;;;;;7.85;1.33;;;;;;;11.32;81.26;98524.75;5072720;28;20056;-82
2021/10/21 17:51:56;;;;;;;12.02;1.50;;;;;;;11.19;76.67;98532.91;5072189;28;20044;-83
2021/10/21 17:54:23;;;;;;;7.50;2.92;;;;;;;11.28;71.19;98546.09;5065950;28;20048;-82
2021/10/21 17:56:54;;;;;;;3.85;1.25;;;;;;;11.24;68.90;98533.94;5072515;28;20114;-82
2021/10/21 17:59:21;;;;;;;3.50;0.68;;;;;;;11.29;69.39;98525.16;5069886;28;20439;-82
2021/10/21 18:01:49;;;;;;;3.40;1.08;;;;;;;11.37;70.17;98543.19;5072169;28;20411;-82
2021/10/21 18:04:18;;;;;;;4.68;1.02;;;;;;;11.31;70.03;98536.69;5071789;28;20056;-82
2021/10/21 18:06:46;;;;;;;4.00;0.80;;;;;;;11.29;68.98;98536.03;5071988;28;20049;-82
2021/10/21 18:09:15;;;;;;;4.03;0.95;;;;;;;11.27;72.14;98535.41;5070245;28;20395;-82
2021/10/21 18:11:44;;;;;;;1.52;0.57;;;;;;;11.32;72.96;98541.94;5079840;28;20044;-82
2021/10/21 18:14:12;;;;;;;3.83;0.93;;;;;;;11.22;73.33;98529.75;5092214;28;20487;-82
2021/10/21 18:16:40;;;;;;;5.68;1.67;;;;;;;11.25;72.76;98548.41;5070798;28;20177;-83
2021/10/21 18:19:09;;;;;;;6.10;1.00;;;;;;;11.29;74.36;98544.19;5071426;28;20127;-82
2021/10/21 18:21:39;;;;;;;2.63;0.70;;;;;;;11.28;74.12;98558.88;5071650;28;20091;-82
2021/10/21 18:24:07;;;;;;;3.58;1.00;;;;;;;11.19;75.13;98546.50;5071356;28;20499;-82
2021/10/21 18:26:35;;;;;;;5.13;1.42;;;;;;;11.16;73.02;98551.28;5064066;28;20052;-82
2021/10/21 18:29:03;;;;;;;4.07;1.23;;;;;;;11.14;75.51;98566.13;5051515;28;20052;-82
2021/10/21 18:31:30;;;;;;;5.35;1.30;;;;;;;11.11;75.50;98561.94;5066606;28;20048;-82
2021/10/21 18:33:57;;;;;;;6.97;1.40;;;;;;;11.23;76.69;98573.09;5071460;28;20048;-82
2021/10/21 18:36:25;;;;;;;4.78;1.25;;;;;;;11.02;76.10;98574.03;5071138;28;20052;-82
2021/10/21 18:38:54;;;;;;;7.50;1.55;;;;;;;11.07;75.60;98582.44;5070525;28;20506;-82
2021/10/21 18:41:24;;;;;;;7.53;2.47;;;;;;;11.11;76.86;98586.44;5071802;28;20040;-82
2021/10/21 18:43:52;;;;;;;;;;;;;;;11.10;76.45;98592.06;5060025;28;20060;-82
2021/10/21 18:46:19;;;;;;;7.15;2.13;;;;;;;10.96;77.59;98574.84;5052634;28;19928;-82
2021/10/21 18:48:46;;;;;;;4.22;1.63;;;;;;;10.94;77.31;98587.81;5071158;28;20063;-82
2021/10/21 18:51:13;;;;;;;3.90;1.02;;;;;;;10.99;77.67;98601.66;5071262;28;20487;-82
2021/10/21 18:53:43;;;;;;;4.10;1.15;;;;;;;10.90;79.68;98581.94;5070358;28;20179;-82
2021/10/21 18:56:22;;;;;;;5.03;1.42;;;;;;;11.01;80.01;98591.41;5071247;28;20552;-82
2021/10/21 18:58:51;;;;;;;8.30;2.10;;;;;;;10.90;80.83;98605.56;5070681;28;20047;-82
2021/10/21 19:01:36;;;;;;;6.00;1.48;;;;;;;10.93;82.42;98610.59;5071627;28;20132;-82